sensor_id;sensor_type;location;lat;lon;timestamp;P1;durP1;ratioP1;P2;durP2;ratioP2
43118;SDS011;28729;49.838;8.650;2022-12-20T00:02:25;37.15;;;18.60;;
43118;SDS011;28729;49.838;8.650;2022-12-20T00:06:27;42.53;;;19.95;;
43118;SDS011;28729;49.838;8.650;2022-12-20T00:10:29;48.22;;;19.33;;
43118;SDS011;28729;49.838;8.650;2022-12-20T00:14:31;43.65;;;20.35;;
43118;SDS011;28729;49.838;8.650;2022-12-20T00:18:32;44.78;;;19.70;;
43118;SDS011;28729;49.838;8.650;2022-12-20T00:22:34;44.63;;;19.83;;
43118;SDS011;28729;49.838;8.650;2022-12-20T00:26:36;48.85;;;21.38;;
43118;SDS011;28729;49.838;8.650;2022-12-20T00:30:40;46.67;;;21.00;;
43118;SDS011;28729;49.838;8.650;2022-12-20T00:34:41;41.40;;;20.48;;
43118;SDS011;28729;49.838;8.650;2022-12-20T00:38:44;46.08;;;22.20;;
43118;SDS011;28729;49.838;8.650;2022-12-20T00:42:46;48.85;;;21.77;;
43118;SDS011;28729;49.838;8.650;2022-12-20T00:46:47;42.60;;;19.38;;
43118;SDS011;28729;49.838;8.650;2022-12-20T00:50:49;44.22;;;21.23;;
43118;SDS011;28729;49.838;8.650;2022-12-20T00:54:51;50.92;;;19.90;;
43118;SDS011;28729;49.838;8.650;2022-12-20T00:58:53;48.13;;;22.08;;
43118;SDS011;28729;49.838;8.650;2022-12-20T01:02:57;41.45;;;20.35;;
43118;SDS011;28729;49.838;8.650;2022-12-20T01:07:04;44.13;;;20.75;;
43118;SDS011;28729;49.838;8.650;2022-12-20T01:11:28;46.25;;;20.15;;
43118;SDS011;28729;49.838;8.650;2022-12-20T01:15:30;45.47;;;19.67;;
43118;SDS011;28729;49.838;8.650;2022-12-20T01:19:32;41.55;;;19.17;;
43118;SDS011;28729;49.838;8.650;2022-12-20T01:23:34;42.33;;;19.75;;
43118;SDS011;28729;49.838;8.650;2022-12-20T01:27:36;46.00;;;21.23;;
43118;SDS011;28729;49.838;8.650;2022-12-20T01:31:37;39.70;;;19.77;;
43118;SDS011;28729;49.838;8.650;2022-12-20T01:35:41;39.08;;;18.98;;
43118;SDS011;28729;49.838;8.650;2022-12-20T01:39:42;49.35;;;21.52;;
43118;SDS011;28729;49.838;8.650;2022-12-20T01:47:53;43.47;;;20.55;;
43118;SDS011;28729;49.838;8.650;2022-12-20T01:56:05;38.30;;;19.05;;
43118;SDS011;28729;49.838;8.650;2022-12-20T02:00:08;41.47;;;19.67;;
43118;SDS011;28729;49.838;8.650;2022-12-20T02:04:14;41.15;;;20.92;;
43118;SDS011;28729;49.838;8.650;2022-12-20T02:08:17;42.72;;;20.52;;
43118;SDS011;28729;49.838;8.650;2022-12-20T02:12:21;40.90;;;19.00;;
43118;SDS011;28729;49.838;8.650;2022-12-20T02:16:26;42.65;;;21.20;;
43118;SDS011;28729;49.838;8.650;2022-12-20T02:20:45;38.28;;;19.33;;
43118;SDS011;28729;49.838;8.650;2022-12-20T02:25:20;43.67;;;19.77;;
43118;SDS011;28729;49.838;8.650;2022-12-20T02:34:15;43.17;;;20.52;;
43118;SDS011;28729;49.838;8.650;2022-12-20T02:42:34;38.70;;;18.95;;
43118;SDS011;28729;49.838;8.650;2022-12-20T02:46:36;50.25;;;21.60;;
43118;SDS011;28729;49.838;8.650;2022-12-20T02:50:39;39.90;;;20.25;;
43118;SDS011;28729;49.838;8.650;2022-12-20T02:54:45;42.22;;;19.50;;
43118;SDS011;28729;49.838;8.650;2022-12-20T02:58:51;40.65;;;19.70;;
43118;SDS011;28729;49.838;8.650;2022-12-20T03:02:56;47.17;;;20.40;;
43118;SDS011;28729;49.838;8.650;2022-12-20T03:07:18;39.55;;;18.40;;
43118;SDS011;28729;49.838;8.650;2022-12-20T03:11:20;47.53;;;20.75;;
43118;SDS011;28729;49.838;8.650;2022-12-20T03:15:22;45.88;;;20.77;;
43118;SDS011;28729;49.838;8.650;2022-12-20T03:19:27;37.28;;;18.00;;
43118;SDS011;28729;49.838;8.650;2022-12-20T03:23:30;40.33;;;19.00;;
43118;SDS011;28729;49.838;8.650;2022-12-20T03:27:32;44.42;;;19.75;;
43118;SDS011;28729;49.838;8.650;2022-12-20T03:31:36;41.40;;;19.88;;
43118;SDS011;28729;49.838;8.650;2022-12-20T03:35:38;44.78;;;19.17;;
43118;SDS011;28729;49.838;8.650;2022-12-20T03:43:43;37.72;;;17.75;;
43118;SDS011;28729;49.838;8.650;2022-12-20T03:47:45;47.05;;;19.98;;
43118;SDS011;28729;49.838;8.650;2022-12-20T03:51:47;38.38;;;19.50;;
43118;SDS011;28729;49.838;8.650;2022-12-20T03:55:49;41.97;;;19.17;;
43118;SDS011;28729;49.838;8.650;2022-12-20T03:59:51;39.28;;;19.60;;
43118;SDS011;28729;49.838;8.650;2022-12-20T04:03:54;43.25;;;19.85;;
43118;SDS011;28729;49.838;8.650;2022-12-20T04:07:56;38.35;;;18.77;;
43118;SDS011;28729;49.838;8.650;2022-12-20T04:11:58;38.63;;;19.70;;
43118;SDS011;28729;49.838;8.650;2022-12-20T04:16:01;43.47;;;21.05;;
43118;SDS011;28729;49.838;8.650;2022-12-20T04:20:06;46.85;;;20.38;;
43118;SDS011;28729;49.838;8.650;2022-12-20T04:24:31;44.15;;;20.30;;
43118;SDS011;28729;49.838;8.650;2022-12-20T04:28:50;47.42;;;21.80;;
43118;SDS011;28729;49.838;8.650;2022-12-20T04:32:52;45.45;;;20.00;;
43118;SDS011;28729;49.838;8.650;2022-12-20T04:36:55;40.53;;;21.20;;
43118;SDS011;28729;49.838;8.650;2022-12-20T04:41:08;45.92;;;21.55;;
43118;SDS011;28729;49.838;8.650;2022-12-20T04:45:20;37.73;;;19.20;;
43118;SDS011;28729;49.838;8.650;2022-12-20T04:49:23;39.53;;;20.83;;
43118;SDS011;28729;49.838;8.650;2022-12-20T04:53:25;39.70;;;19.33;;
43118;SDS011;28729;49.838;8.650;2022-12-20T04:57:45;42.50;;;20.15;;
43118;SDS011;28729;49.838;8.650;2022-12-20T05:01:48;40.72;;;20.70;;
43118;SDS011;28729;49.838;8.650;2022-12-20T05:06:02;42.40;;;19.73;;
43118;SDS011;28729;49.838;8.650;2022-12-20T05:10:04;42.85;;;19.75;;
43118;SDS011;28729;49.838;8.650;2022-12-20T05:14:07;35.25;;;18.23;;
43118;SDS011;28729;49.838;8.650;2022-12-20T05:18:08;42.05;;;19.13;;
43118;SDS011;28729;49.838;8.650;2022-12-20T05:22:21;40.85;;;19.00;;
43118;SDS011;28729;49.838;8.650;2022-12-20T05:26:44;39.50;;;19.52;;
43118;SDS011;28729;49.838;8.650;2022-12-20T05:30:46;43.92;;;20.20;;
43118;SDS011;28729;49.838;8.650;2022-12-20T05:34:48;40.00;;;18.85;;
43118;SDS011;28729;49.838;8.650;2022-12-20T05:38:51;35.35;;;18.75;;
43118;SDS011;28729;49.838;8.650;2022-12-20T05:43:02;39.63;;;17.80;;
43118;SDS011;28729;49.838;8.650;2022-12-20T05:47:10;35.40;;;17.08;;
43118;SDS011;28729;49.838;8.650;2022-12-20T05:51:12;33.63;;;17.80;;
43118;SDS011;28729;49.838;8.650;2022-12-20T05:55:30;35.10;;;17.30;;
43118;SDS011;28729;49.838;8.650;2022-12-20T05:59:32;33.78;;;16.95;;
43118;SDS011;28729;49.838;8.650;2022-12-20T06:03:33;31.02;;;16.83;;
43118;SDS011;28729;49.838;8.650;2022-12-20T06:07:39;39.03;;;18.83;;
43118;SDS011;28729;49.838;8.650;2022-12-20T06:11:41;36.40;;;17.43;;
43118;SDS011;28729;49.838;8.650;2022-12-20T06:15:45;40.58;;;19.23;;
43118;SDS011;28729;49.838;8.650;2022-12-20T06:19:49;39.85;;;18.80;;
43118;SDS011;28729;49.838;8.650;2022-12-20T06:23:51;35.03;;;17.58;;
43118;SDS011;28729;49.838;8.650;2022-12-20T06:27:54;38.70;;;19.08;;
43118;SDS011;28729;49.838;8.650;2022-12-20T06:31:57;35.10;;;17.20;;
43118;SDS011;28729;49.838;8.650;2022-12-20T06:36:00;38.08;;;19.00;;
43118;SDS011;28729;49.838;8.650;2022-12-20T06:40:03;39.37;;;19.60;;
43118;SDS011;28729;49.838;8.650;2022-12-20T06:44:06;37.58;;;18.83;;
43118;SDS011;28729;49.838;8.650;2022-12-20T06:48:08;38.60;;;18.45;;
43118;SDS011;28729;49.838;8.650;2022-12-20T06:52:11;37.50;;;17.50;;
43118;SDS011;28729;49.838;8.650;2022-12-20T06:56:22;34.55;;;17.05;;
43118;SDS011;28729;49.838;8.650;2022-12-20T07:00:24;29.90;;;16.30;;
43118;SDS011;28729;49.838;8.650;2022-12-20T07:04:27;36.55;;;16.95;;
43118;SDS011;28729;49.838;8.650;2022-12-20T07:08:28;39.72;;;18.67;;
43118;SDS011;28729;49.838;8.650;2022-12-20T07:12:30;35.85;;;19.35;;
43118;SDS011;28729;49.838;8.650;2022-12-20T07:16:34;40.97;;;19.52;;
43118;SDS011;28729;49.838;8.650;2022-12-20T07:20:37;37.17;;;17.83;;
43118;SDS011;28729;49.838;8.650;2022-12-20T07:24:38;34.00;;;17.52;;
43118;SDS011;28729;49.838;8.650;2022-12-20T07:28:40;48.00;;;20.02;;
43118;SDS011;28729;49.838;8.650;2022-12-20T07:32:42;36.97;;;18.58;;
43118;SDS011;28729;49.838;8.650;2022-12-20T07:36:44;33.38;;;17.73;;
43118;SDS011;28729;49.838;8.650;2022-12-20T07:40:45;31.60;;;17.83;;
43118;SDS011;28729;49.838;8.650;2022-12-20T07:44:47;36.13;;;17.27;;
43118;SDS011;28729;49.838;8.650;2022-12-20T07:48:49;39.55;;;16.77;;
43118;SDS011;28729;49.838;8.650;2022-12-20T07:52:51;30.20;;;16.08;;
43118;SDS011;28729;49.838;8.650;2022-12-20T07:57:00;34.25;;;16.13;;
43118;SDS011;28729;49.838;8.650;2022-12-20T08:01:25;30.65;;;16.05;;
43118;SDS011;28729;49.838;8.650;2022-12-20T08:05:28;31.60;;;16.08;;
43118;SDS011;28729;49.838;8.650;2022-12-20T08:09:33;29.43;;;15.13;;
43118;SDS011;28729;49.838;8.650;2022-12-20T08:13:39;29.58;;;15.00;;
43118;SDS011;28729;49.838;8.650;2022-12-20T08:17:46;30.15;;;16.95;;
43118;SDS011;28729;49.838;8.650;2022-12-20T08:21:48;37.17;;;18.55;;
43118;SDS011;28729;49.838;8.650;2022-12-20T08:25:50;36.33;;;20.15;;
43118;SDS011;28729;49.838;8.650;2022-12-20T08:29:51;30.92;;;17.10;;
43118;SDS011;28729;49.838;8.650;2022-12-20T08:33:54;27.55;;;14.73;;
43118;SDS011;28729;49.838;8.650;2022-12-20T08:37:56;26.73;;;13.35;;
43118;SDS011;28729;49.838;8.650;2022-12-20T08:41:58;27.02;;;12.65;;
43118;SDS011;28729;49.838;8.650;2022-12-20T08:45:59;28.67;;;14.70;;
43118;SDS011;28729;49.838;8.650;2022-12-20T08:50:01;22.73;;;13.95;;
43118;SDS011;28729;49.838;8.650;2022-12-20T08:54:03;22.27;;;11.70;;
43118;SDS011;28729;49.838;8.650;2022-12-20T08:58:07;23.38;;;12.07;;
43118;SDS011;28729;49.838;8.650;2022-12-20T09:02:09;22.70;;;12.43;;
43118;SDS011;28729;49.838;8.650;2022-12-20T09:06:17;22.27;;;12.95;;
43118;SDS011;28729;49.838;8.650;2022-12-20T09:10:21;26.63;;;13.30;;
43118;SDS011;28729;49.838;8.650;2022-12-20T09:14:23;23.83;;;12.30;;
43118;SDS011;28729;49.838;8.650;2022-12-20T09:18:24;24.90;;;13.85;;
43118;SDS011;28729;49.838;8.650;2022-12-20T09:22:27;24.30;;;14.18;;
43118;SDS011;28729;49.838;8.650;2022-12-20T09:26:30;23.55;;;13.75;;
43118;SDS011;28729;49.838;8.650;2022-12-20T09:30:32;26.13;;;14.23;;
43118;SDS011;28729;49.838;8.650;2022-12-20T09:34:34;24.90;;;13.40;;
43118;SDS011;28729;49.838;8.650;2022-12-20T09:38:36;22.63;;;12.40;;
43118;SDS011;28729;49.838;8.650;2022-12-20T09:42:38;23.23;;;12.70;;
43118;SDS011;28729;49.838;8.650;2022-12-20T09:46:39;24.67;;;12.27;;
43118;SDS011;28729;49.838;8.650;2022-12-20T09:50:45;25.17;;;15.95;;
43118;SDS011;28729;49.838;8.650;2022-12-20T09:59:28;23.55;;;13.18;;
43118;SDS011;28729;49.838;8.650;2022-12-20T10:03:40;22.63;;;13.52;;
43118;SDS011;28729;49.838;8.650;2022-12-20T10:07:59;15.57;;;7.93;;
43118;SDS011;28729;49.838;8.650;2022-12-20T10:12:17;20.33;;;12.13;;
43118;SDS011;28729;49.838;8.650;2022-12-20T10:16:41;22.25;;;12.45;;
43118;SDS011;28729;49.838;8.650;2022-12-20T10:20:56;19.23;;;10.95;;
43118;SDS011;28729;49.838;8.650;2022-12-20T10:25:12;21.58;;;11.93;;
43118;SDS011;28729;49.838;8.650;2022-12-20T10:29:23;16.67;;;10.65;;
43118;SDS011;28729;49.838;8.650;2022-12-20T10:33:24;21.85;;;10.75;;
43118;SDS011;28729;49.838;8.650;2022-12-20T10:37:28;20.05;;;11.50;;
43118;SDS011;28729;49.838;8.650;2022-12-20T10:41:48;19.08;;;10.20;;
43118;SDS011;28729;49.838;8.650;2022-12-20T10:46:02;18.30;;;10.70;;
43118;SDS011;28729;49.838;8.650;2022-12-20T10:50:08;25.90;;;11.57;;
43118;SDS011;28729;49.838;8.650;2022-12-20T10:54:22;24.35;;;12.02;;
43118;SDS011;28729;49.838;8.650;2022-12-20T10:58:35;19.15;;;10.82;;
43118;SDS011;28729;49.838;8.650;2022-12-20T11:02:38;23.20;;;12.27;;
43118;SDS011;28729;49.838;8.650;2022-12-20T11:06:43;22.85;;;13.05;;
43118;SDS011;28729;49.838;8.650;2022-12-20T11:10:45;26.23;;;12.77;;
43118;SDS011;28729;49.838;8.650;2022-12-20T11:14:48;19.43;;;11.93;;
43118;SDS011;28729;49.838;8.650;2022-12-20T11:35:59;24.42;;;12.20;;
43118;SDS011;28729;49.838;8.650;2022-12-20T11:53:20;22.38;;;11.57;;
43118;SDS011;28729;49.838;8.650;2022-12-20T11:57:29;23.98;;;11.88;;
43118;SDS011;28729;49.838;8.650;2022-12-20T12:02:03;19.58;;;12.13;;
43118;SDS011;28729;49.838;8.650;2022-12-20T12:18:46;16.42;;;10.68;;
43118;SDS011;28729;49.838;8.650;2022-12-20T12:22:48;16.50;;;9.60;;
43118;SDS011;28729;49.838;8.650;2022-12-20T12:26:54;16.27;;;10.00;;
43118;SDS011;28729;49.838;8.650;2022-12-20T12:30:59;15.45;;;10.02;;
43118;SDS011;28729;49.838;8.650;2022-12-20T12:35:11;17.02;;;10.57;;
43118;SDS011;28729;49.838;8.650;2022-12-20T12:39:47;18.67;;;10.02;;
43118;SDS011;28729;49.838;8.650;2022-12-20T12:44:25;15.65;;;9.60;;
43118;SDS011;28729;49.838;8.650;2022-12-20T12:48:39;17.60;;;9.40;;
43118;SDS011;28729;49.838;8.650;2022-12-20T12:52:49;18.13;;;10.25;;
43118;SDS011;28729;49.838;8.650;2022-12-20T12:57:01;20.38;;;11.13;;
43118;SDS011;28729;49.838;8.650;2022-12-20T13:01:10;18.13;;;9.98;;
43118;SDS011;28729;49.838;8.650;2022-12-20T13:09:18;19.77;;;10.65;;
43118;SDS011;28729;49.838;8.650;2022-12-20T13:13:22;19.27;;;11.55;;
43118;SDS011;28729;49.838;8.650;2022-12-20T13:21:45;17.23;;;10.10;;
43118;SDS011;28729;49.838;8.650;2022-12-20T13:25:49;18.80;;;9.80;;
43118;SDS011;28729;49.838;8.650;2022-12-20T13:33:59;13.98;;;8.73;;
43118;SDS011;28729;49.838;8.650;2022-12-20T13:50:53;14.88;;;8.55;;
43118;SDS011;28729;49.838;8.650;2022-12-20T13:54:57;12.48;;;7.70;;
43118;SDS011;28729;49.838;8.650;2022-12-20T13:59:05;16.10;;;9.02;;
43118;SDS011;28729;49.838;8.650;2022-12-20T14:03:19;15.55;;;9.45;;
43118;SDS011;28729;49.838;8.650;2022-12-20T14:07:23;15.20;;;9.95;;
43118;SDS011;28729;49.838;8.650;2022-12-20T14:11:27;14.70;;;9.35;;
43118;SDS011;28729;49.838;8.650;2022-12-20T14:19:32;18.08;;;8.93;;
43118;SDS011;28729;49.838;8.650;2022-12-20T14:23:36;17.55;;;9.15;;
43118;SDS011;28729;49.838;8.650;2022-12-20T14:27:43;14.93;;;8.75;;
43118;SDS011;28729;49.838;8.650;2022-12-20T14:35:51;16.02;;;8.35;;
43118;SDS011;28729;49.838;8.650;2022-12-20T14:39:53;34.15;;;17.05;;
43118;SDS011;28729;49.838;8.650;2022-12-20T14:43:56;42.53;;;19.95;;
43118;SDS011;28729;49.838;8.650;2022-12-20T14:56:14;16.35;;;8.40;;
43118;SDS011;28729;49.838;8.650;2022-12-20T15:00:25;11.32;;;7.00;;
43118;SDS011;28729;49.838;8.650;2022-12-20T15:04:32;15.27;;;6.90;;
43118;SDS011;28729;49.838;8.650;2022-12-20T15:08:36;13.90;;;7.88;;
43118;SDS011;28729;49.838;8.650;2022-12-20T15:12:38;13.43;;;7.65;;
43118;SDS011;28729;49.838;8.650;2022-12-20T15:16:46;15.93;;;6.95;;
43118;SDS011;28729;49.838;8.650;2022-12-20T15:20:53;15.15;;;7.65;;
43118;SDS011;28729;49.838;8.650;2022-12-20T15:25:14;14.27;;;7.75;;
43118;SDS011;28729;49.838;8.650;2022-12-20T15:29:20;12.48;;;7.05;;
43118;SDS011;28729;49.838;8.650;2022-12-20T15:33:26;14.23;;;6.85;;
43118;SDS011;28729;49.838;8.650;2022-12-20T15:37:31;15.90;;;7.53;;
43118;SDS011;28729;49.838;8.650;2022-12-20T15:41:33;12.77;;;7.40;;
43118;SDS011;28729;49.838;8.650;2022-12-20T15:45:34;10.73;;;6.78;;
43118;SDS011;28729;49.838;8.650;2022-12-20T15:49:36;14.75;;;7.40;;
43118;SDS011;28729;49.838;8.650;2022-12-20T15:53:37;11.85;;;7.50;;
43118;SDS011;28729;49.838;8.650;2022-12-20T15:57:39;14.02;;;7.32;;
43118;SDS011;28729;49.838;8.650;2022-12-20T16:01:41;14.95;;;7.88;;
43118;SDS011;28729;49.838;8.650;2022-12-20T16:05:43;12.90;;;7.00;;
43118;SDS011;28729;49.838;8.650;2022-12-20T16:09:44;11.55;;;6.38;;
43118;SDS011;28729;49.838;8.650;2022-12-20T16:13:46;13.07;;;6.85;;
43118;SDS011;28729;49.838;8.650;2022-12-20T16:17:47;14.35;;;6.82;;
43118;SDS011;28729;49.838;8.650;2022-12-20T16:21:50;9.53;;;5.17;;
43118;SDS011;28729;49.838;8.650;2022-12-20T16:25:52;10.18;;;5.25;;
43118;SDS011;28729;49.838;8.650;2022-12-20T16:29:53;12.43;;;5.47;;
43118;SDS011;28729;49.838;8.650;2022-12-20T16:33:56;10.65;;;6.25;;
43118;SDS011;28729;49.838;8.650;2022-12-20T16:37:59;10.68;;;6.25;;
43118;SDS011;28729;49.838;8.650;2022-12-20T16:42:00;12.97;;;7.03;;
43118;SDS011;28729;49.838;8.650;2022-12-20T16:46:02;11.32;;;7.28;;
43118;SDS011;28729;49.838;8.650;2022-12-20T16:50:05;12.80;;;6.93;;
43118;SDS011;28729;49.838;8.650;2022-12-20T16:54:12;10.68;;;6.38;;
43118;SDS011;28729;49.838;8.650;2022-12-20T16:58:21;18.45;;;7.55;;
43118;SDS011;28729;49.838;8.650;2022-12-20T17:02:43;9.93;;;6.53;;
43118;SDS011;28729;49.838;8.650;2022-12-20T17:06:45;10.05;;;7.20;;
43118;SDS011;28729;49.838;8.650;2022-12-20T17:10:47;13.03;;;7.33;;
43118;SDS011;28729;49.838;8.650;2022-12-20T17:14:49;15.70;;;9.18;;
43118;SDS011;28729;49.838;8.650;2022-12-20T17:18:51;15.52;;;8.05;;
43118;SDS011;28729;49.838;8.650;2022-12-20T17:22:54;12.52;;;6.82;;
43118;SDS011;28729;49.838;8.650;2022-12-20T17:26:56;9.10;;;5.18;;
43118;SDS011;28729;49.838;8.650;2022-12-20T17:30:58;12.57;;;7.10;;
43118;SDS011;28729;49.838;8.650;2022-12-20T17:35:12;11.75;;;6.88;;
43118;SDS011;28729;49.838;8.650;2022-12-20T17:39:20;11.25;;;6.05;;
43118;SDS011;28729;49.838;8.650;2022-12-20T17:43:22;10.27;;;5.95;;
43118;SDS011;28729;49.838;8.650;2022-12-20T17:47:24;11.85;;;6.07;;
43118;SDS011;28729;49.838;8.650;2022-12-20T17:51:26;10.10;;;5.68;;
43118;SDS011;28729;49.838;8.650;2022-12-20T17:55:30;8.45;;;5.32;;
43118;SDS011;28729;49.838;8.650;2022-12-20T17:59:32;11.33;;;6.00;;
43118;SDS011;28729;49.838;8.650;2022-12-20T18:03:34;11.02;;;6.43;;
43118;SDS011;28729;49.838;8.650;2022-12-20T18:07:55;13.88;;;6.13;;
43118;SDS011;28729;49.838;8.650;2022-12-20T18:11:57;12.80;;;7.25;;
43118;SDS011;28729;49.838;8.650;2022-12-20T18:16:02;12.27;;;7.35;;
43118;SDS011;28729;49.838;8.650;2022-12-20T18:20:05;11.05;;;6.63;;
43118;SDS011;28729;49.838;8.650;2022-12-20T18:24:10;12.13;;;7.15;;
43118;SDS011;28729;49.838;8.650;2022-12-20T18:28:13;13.93;;;7.22;;
43118;SDS011;28729;49.838;8.650;2022-12-20T18:32:15;17.27;;;7.72;;
43118;SDS011;28729;49.838;8.650;2022-12-20T18:36:17;14.43;;;7.18;;
43118;SDS011;28729;49.838;8.650;2022-12-20T18:40:21;12.93;;;8.10;;
43118;SDS011;28729;49.838;8.650;2022-12-20T18:44:26;13.60;;;7.50;;
43118;SDS011;28729;49.838;8.650;2022-12-20T18:48:28;12.85;;;7.40;;
43118;SDS011;28729;49.838;8.650;2022-12-20T18:52:30;13.27;;;7.38;;
43118;SDS011;28729;49.838;8.650;2022-12-20T18:56:32;13.85;;;8.93;;
43118;SDS011;28729;49.838;8.650;2022-12-20T19:00:35;13.93;;;8.23;;
43118;SDS011;28729;49.838;8.650;2022-12-20T19:04:37;13.85;;;7.80;;
43118;SDS011;28729;49.838;8.650;2022-12-20T19:08:39;12.27;;;7.68;;
43118;SDS011;28729;49.838;8.650;2022-12-20T19:12:41;14.88;;;9.02;;
43118;SDS011;28729;49.838;8.650;2022-12-20T19:16:43;12.93;;;7.50;;
43118;SDS011;28729;49.838;8.650;2022-12-20T19:20:45;13.13;;;7.60;;
43118;SDS011;28729;49.838;8.650;2022-12-20T19:24:46;19.50;;;6.93;;
43118;SDS011;28729;49.838;8.650;2022-12-20T19:28:48;13.00;;;7.30;;
43118;SDS011;28729;49.838;8.650;2022-12-20T19:32:50;15.97;;;6.27;;
43118;SDS011;28729;49.838;8.650;2022-12-20T19:36:52;10.85;;;6.13;;
43118;SDS011;28729;49.838;8.650;2022-12-20T19:40:54;10.98;;;6.13;;
43118;SDS011;28729;49.838;8.650;2022-12-20T19:44:55;14.43;;;6.85;;
43118;SDS011;28729;49.838;8.650;2022-12-20T19:48:57;13.05;;;8.57;;
43118;SDS011;28729;49.838;8.650;2022-12-20T19:53:00;14.10;;;8.20;;
43118;SDS011;28729;49.838;8.650;2022-12-20T19:57:02;13.57;;;8.10;;
43118;SDS011;28729;49.838;8.650;2022-12-20T20:01:06;22.02;;;11.93;;
43118;SDS011;28729;49.838;8.650;2022-12-20T20:05:09;19.10;;;10.65;;
43118;SDS011;28729;49.838;8.650;2022-12-20T20:09:15;17.67;;;10.00;;
43118;SDS011;28729;49.838;8.650;2022-12-20T20:13:16;21.50;;;11.10;;
43118;SDS011;28729;49.838;8.650;2022-12-20T20:17:19;18.10;;;10.70;;
43118;SDS011;28729;49.838;8.650;2022-12-20T20:21:21;16.85;;;9.82;;
43118;SDS011;28729;49.838;8.650;2022-12-20T20:25:23;15.40;;;9.10;;
43118;SDS011;28729;49.838;8.650;2022-12-20T20:29:25;20.02;;;8.98;;
43118;SDS011;28729;49.838;8.650;2022-12-20T20:33:26;16.92;;;9.20;;
43118;SDS011;28729;49.838;8.650;2022-12-20T20:37:28;14.90;;;9.20;;
43118;SDS011;28729;49.838;8.650;2022-12-20T20:41:30;13.93;;;8.25;;
43118;SDS011;28729;49.838;8.650;2022-12-20T20:45:33;17.98;;;9.02;;
43118;SDS011;28729;49.838;8.650;2022-12-20T20:49:34;17.55;;;8.48;;
43118;SDS011;28729;49.838;8.650;2022-12-20T20:53:36;12.23;;;8.10;;
43118;SDS011;28729;49.838;8.650;2022-12-20T20:57:38;13.70;;;7.90;;
43118;SDS011;28729;49.838;8.650;2022-12-20T21:01:40;10.15;;;5.75;;
43118;SDS011;28729;49.838;8.650;2022-12-20T21:05:42;16.13;;;7.43;;
43118;SDS011;28729;49.838;8.650;2022-12-20T21:10:04;16.95;;;7.50;;
43118;SDS011;28729;49.838;8.650;2022-12-20T21:14:07;13.40;;;6.95;;
43118;SDS011;28729;49.838;8.650;2022-12-20T21:18:09;13.20;;;6.57;;
43118;SDS011;28729;49.838;8.650;2022-12-20T21:22:11;12.23;;;7.15;;
43118;SDS011;28729;49.838;8.650;2022-12-20T21:26:14;10.20;;;5.78;;
43118;SDS011;28729;49.838;8.650;2022-12-20T21:30:17;15.15;;;5.45;;
43118;SDS011;28729;49.838;8.650;2022-12-20T21:34:18;9.75;;;5.53;;
43118;SDS011;28729;49.838;8.650;2022-12-20T21:38:20;10.85;;;5.57;;
43118;SDS011;28729;49.838;8.650;2022-12-20T21:42:22;10.15;;;5.53;;
43118;SDS011;28729;49.838;8.650;2022-12-20T21:46:24;9.25;;;4.63;;
43118;SDS011;28729;49.838;8.650;2022-12-20T21:50:26;8.93;;;4.63;;
43118;SDS011;28729;49.838;8.650;2022-12-20T21:54:28;9.15;;;5.43;;
43118;SDS011;28729;49.838;8.650;2022-12-20T21:58:30;8.52;;;4.97;;
43118;SDS011;28729;49.838;8.650;2022-12-20T22:02:31;9.37;;;5.20;;
43118;SDS011;28729;49.838;8.650;2022-12-20T22:06:33;7.20;;;4.63;;
43118;SDS011;28729;49.838;8.650;2022-12-20T22:10:35;8.57;;;5.00;;
43118;SDS011;28729;49.838;8.650;2022-12-20T22:14:37;7.70;;;4.88;;
43118;SDS011;28729;49.838;8.650;2022-12-20T22:18:38;10.77;;;5.50;;
43118;SDS011;28729;49.838;8.650;2022-12-20T22:22:41;12.00;;;5.50;;
43118;SDS011;28729;49.838;8.650;2022-12-20T22:26:43;11.07;;;4.97;;
43118;SDS011;28729;49.838;8.650;2022-12-20T22:30:44;10.02;;;5.13;;
43118;SDS011;28729;49.838;8.650;2022-12-20T22:34:46;11.68;;;4.28;;
43118;SDS011;28729;49.838;8.650;2022-12-20T22:38:51;7.50;;;4.40;;
43118;SDS011;28729;49.838;8.650;2022-12-20T22:42:53;9.80;;;4.32;;
43118;SDS011;28729;49.838;8.650;2022-12-20T22:46:55;6.85;;;4.05;;
43118;SDS011;28729;49.838;8.650;2022-12-20T22:51:03;7.95;;;3.80;;
43118;SDS011;28729;49.838;8.650;2022-12-20T22:55:10;8.82;;;4.10;;
43118;SDS011;28729;49.838;8.650;2022-12-20T22:59:12;5.72;;;3.58;;
43118;SDS011;28729;49.838;8.650;2022-12-20T23:03:14;6.03;;;3.58;;
43118;SDS011;28729;49.838;8.650;2022-12-20T23:07:16;17.02;;;3.72;;
43118;SDS011;28729;49.838;8.650;2022-12-20T23:11:19;6.60;;;4.10;;
43118;SDS011;28729;49.838;8.650;2022-12-20T23:19:43;7.50;;;3.20;;
43118;SDS011;28729;49.838;8.650;2022-12-20T23:24:03;8.23;;;4.00;;
43118;SDS011;28729;49.838;8.650;2022-12-20T23:28:05;9.68;;;3.83;;
43118;SDS011;28729;49.838;8.650;2022-12-20T23:32:07;8.50;;;4.18;;
43118;SDS011;28729;49.838;8.650;2022-12-20T23:36:09;7.60;;;3.70;;
43118;SDS011;28729;49.838;8.650;2022-12-20T23:40:12;6.65;;;3.92;;
43118;SDS011;28729;49.838;8.650;2022-12-20T23:44:14;8.52;;;4.07;;
43118;SDS011;28729;49.838;8.650;2022-12-20T23:48:16;7.70;;;4.15;;
43118;SDS011;28729;49.838;8.650;2022-12-20T23:52:18;9.98;;;4.88;;
43118;SDS011;28729;49.838;8.650;2022-12-20T23:56:20;8.32;;;4.57;;
